createdAt,value
2022-12-12T00:00:43.663Z,14.73
2022-12-12T00:03:10.623Z,15.33
2022-12-12T00:05:37.995Z,17.07
2022-12-12T00:08:05.168Z,16.93
2022-12-12T00:10:32.660Z,16.37
2022-12-12T00:12:59.559Z,17.83
2022-12-12T00:15:27.724Z,17.23
2022-12-12T00:17:55.297Z,14.77
2022-12-12T00:20:22.420Z,15.13
2022-12-12T00:22:49.224Z,14.60
2022-12-12T00:25:16.080Z,16.20
2022-12-12T00:27:42.877Z,15.97
2022-12-12T00:30:10.248Z,15.37
2022-12-12T00:32:37.040Z,15.77
2022-12-12T00:35:04.270Z,15.87
2022-12-12T00:37:31.059Z,16.63
2022-12-12T00:40:02.731Z,16.23
2022-12-12T00:42:29.537Z,15.77
2022-12-12T00:44:56.435Z,15.43
2022-12-12T00:47:23.266Z,15.93
2022-12-12T00:49:50.072Z,15.50
2022-12-12T00:52:16.883Z,15.63
2022-12-12T00:54:43.744Z,16.73
2022-12-12T00:57:10.597Z,18.33
2022-12-12T00:59:37.346Z,17.03
2022-12-12T01:02:04.275Z,16.73
2022-12-12T01:04:31.077Z,15.63
2022-12-12T01:06:57.886Z,15.63
2022-12-12T01:09:24.699Z,14.57
2022-12-12T01:11:51.716Z,15.73
2022-12-12T01:14:18.679Z,15.53
2022-12-12T01:16:45.500Z,14.77
2022-12-12T01:19:13.030Z,16.83
2022-12-12T01:21:39.886Z,15.33
2022-12-12T01:24:06.911Z,15.43
2022-12-12T01:26:34.115Z,15.87
2022-12-12T01:29:01.792Z,15.63
2022-12-12T01:31:28.692Z,16.23
2022-12-12T01:33:55.673Z,15.17
2022-12-12T01:36:23.959Z,15.53
2022-12-12T01:38:54.365Z,15.03
2022-12-12T01:41:21.603Z,16.10
2022-12-12T01:43:49.675Z,14.23
2022-12-12T01:46:22.594Z,15.90
2022-12-12T01:49:02.162Z,15.20
2022-12-12T01:51:30.803Z,15.50
2022-12-12T01:54:04.662Z,15.17
2022-12-12T01:56:33.013Z,16.03
2022-12-12T01:59:03.695Z,14.53
2022-12-12T02:01:31.664Z,13.63
2022-12-12T02:04:00.682Z,14.30
2022-12-12T02:06:29.605Z,14.87
2022-12-12T02:09:04.085Z,15.50
2022-12-12T02:11:35.035Z,14.90
2022-12-12T02:14:01.999Z,15.03
2022-12-12T02:16:54.036Z,14.80
2022-12-12T02:19:43.787Z,14.37
2022-12-12T02:22:22.029Z,15.00
2022-12-12T02:25:32.289Z,15.57
2022-12-12T02:28:20.143Z,13.93
2022-12-12T02:31:33.252Z,14.70
2022-12-12T02:34:31.335Z,14.23
2022-12-12T02:37:09.608Z,14.83
2022-12-12T02:40:07.155Z,14.33
2022-12-12T02:42:45.877Z,14.97
2022-12-12T02:45:31.381Z,16.83
2022-12-12T02:48:08.464Z,16.87
2022-12-12T02:50:38.725Z,15.27
2022-12-12T02:53:06.419Z,14.70
2022-12-12T02:55:36.430Z,16.47
2022-12-12T02:58:05.476Z,15.83
2022-12-12T03:00:47.641Z,14.97
2022-12-12T03:03:53.334Z,16.83
2022-12-12T03:07:08.733Z,15.60
2022-12-12T03:10:11.961Z,15.17
2022-12-12T03:13:03.666Z,16.73
2022-12-12T03:15:48.494Z,16.67
2022-12-12T03:18:28.736Z,16.73
2022-12-12T03:21:35.800Z,17.80
2022-12-12T03:24:27.913Z,17.00
2022-12-12T03:27:09.657Z,17.50
2022-12-12T03:29:48.152Z,16.63
2022-12-12T03:32:24.315Z,15.40
2022-12-12T03:35:03.590Z,16.57
2022-12-12T03:37:40.804Z,15.73
2022-12-12T03:40:15.464Z,15.77
2022-12-12T03:42:46.789Z,17.10
2022-12-12T03:45:31.148Z,16.73
2022-12-12T03:48:14.278Z,16.20
2022-12-12T03:51:00.601Z,16.27
2022-12-12T03:53:41.974Z,16.93
2022-12-12T03:56:24.986Z,15.87
2022-12-12T03:59:04.625Z,16.23
2022-12-12T04:01:45.453Z,16.13
2022-12-12T04:04:23.919Z,17.67
2022-12-12T04:07:03.691Z,16.03
2022-12-12T04:09:49.448Z,16.40
2022-12-12T04:12:42.566Z,16.47
2022-12-12T04:15:33.997Z,16.60
2022-12-12T04:18:44.067Z,15.23
2022-12-12T04:21:59.078Z,15.60
2022-12-12T04:24:50.059Z,15.13
2022-12-12T04:27:39.565Z,17.17
2022-12-12T04:30:13.505Z,16.73
2022-12-12T04:33:11.626Z,15.60
2022-12-12T04:35:45.184Z,16.57
2022-12-12T04:38:24.441Z,16.17
2022-12-12T04:40:57.583Z,15.20
2022-12-12T04:43:38.267Z,16.73
2022-12-12T04:46:28.445Z,17.60
2022-12-12T04:49:03.620Z,17.30
2022-12-12T04:51:37.230Z,16.53
2022-12-12T04:54:23.466Z,16.97
2022-12-12T04:56:58.531Z,17.83
2022-12-12T04:59:26.210Z,16.67
2022-12-12T05:02:06.248Z,18.63
2022-12-12T05:05:03.916Z,17.73
2022-12-12T05:07:43.836Z,18.07
2022-12-12T05:10:17.652Z,18.43
2022-12-12T05:12:48.670Z,17.50
2022-12-12T05:15:18.621Z,18.37
2022-12-12T05:17:56.470Z,19.13
2022-12-12T05:20:23.246Z,16.30
2022-12-12T05:22:50.021Z,17.73
2022-12-12T05:25:16.857Z,17.60
2022-12-12T05:27:43.839Z,17.73
2022-12-12T05:30:11.440Z,17.33
2022-12-12T05:50:11.393Z,18.27
2022-12-12T05:52:38.242Z,18.03
2022-12-12T05:55:06.268Z,16.77
2022-12-12T05:57:33.097Z,17.00
2022-12-12T05:59:59.892Z,16.90
2022-12-12T06:02:26.699Z,17.87
2022-12-12T06:04:53.657Z,17.77
2022-12-12T06:07:20.451Z,17.73
2022-12-12T06:09:47.249Z,17.37
2022-12-12T06:12:14.104Z,15.33
2022-12-12T06:14:44.063Z,16.63
2022-12-12T06:17:10.838Z,18.40
2022-12-12T06:19:37.730Z,18.07
2022-12-12T06:22:04.793Z,16.57
2022-12-12T06:24:31.601Z,17.73
2022-12-12T06:26:58.360Z,15.37
2022-12-12T06:29:25.144Z,16.80
2022-12-12T06:31:51.985Z,16.13
2022-12-12T06:34:18.754Z,16.97
2022-12-12T06:36:45.649Z,17.57
2022-12-12T06:39:12.656Z,17.00
2022-12-12T06:41:39.875Z,16.30
2022-12-12T06:44:07.822Z,16.27
2022-12-12T06:46:35.965Z,16.13
2022-12-12T06:49:09.460Z,15.97
2022-12-12T06:51:44.057Z,16.53
2022-12-12T06:54:17.169Z,16.53
2022-12-12T06:56:48.273Z,15.10
2022-12-12T06:59:16.767Z,15.33
2022-12-12T07:01:44.532Z,15.50
2022-12-12T07:04:14.825Z,15.63
2022-12-12T07:06:41.768Z,15.37
2022-12-12T07:09:08.813Z,14.60
2022-12-12T07:11:35.694Z,13.77
2022-12-12T07:14:05.518Z,14.23
2022-12-12T07:16:32.455Z,15.17
2022-12-12T07:18:59.429Z,15.13
2022-12-12T07:21:26.260Z,13.50
2022-12-12T07:23:53.055Z,14.57
2022-12-12T07:26:22.574Z,14.43
2022-12-12T07:28:51.478Z,14.27
2022-12-12T07:31:24.497Z,14.00
2022-12-12T07:33:54.898Z,15.83
2022-12-12T07:36:22.043Z,14.50
2022-12-12T07:38:51.000Z,15.80
2022-12-12T07:41:20.423Z,15.00
2022-12-12T07:43:48.333Z,16.10
2022-12-12T07:46:24.652Z,16.53
2022-12-12T07:48:53.524Z,15.83
2022-12-12T07:51:21.203Z,15.57
2022-12-12T07:53:48.178Z,16.63
2022-12-12T07:56:17.156Z,16.70
2022-12-12T07:58:45.065Z,16.60
2022-12-12T08:05:18.407Z,16.87
2022-12-12T08:07:48.219Z,15.73
2022-12-12T08:35:21.388Z,13.53
2022-12-12T08:41:50.279Z,13.07
2022-12-12T08:44:20.484Z,14.87
2022-12-12T08:46:48.233Z,16.07
2022-12-12T08:49:16.447Z,15.23
2022-12-12T08:51:44.152Z,15.23
2022-12-12T08:54:13.257Z,15.73
2022-12-12T08:56:41.094Z,17.10
2022-12-12T08:59:07.999Z,15.83
2022-12-12T09:01:35.174Z,15.37
2022-12-12T09:04:02.584Z,17.37
2022-12-12T09:06:29.370Z,15.60
2022-12-12T09:08:57.485Z,16.60
2022-12-12T09:11:24.697Z,16.10
2022-12-12T09:13:51.726Z,17.33
2022-12-12T09:16:19.703Z,17.27
2022-12-12T09:18:49.268Z,17.20
2022-12-12T09:21:17.600Z,17.83
2022-12-12T09:23:44.812Z,16.83
2022-12-12T09:26:11.989Z,17.27
2022-12-12T09:28:39.096Z,16.70
2022-12-12T09:31:12.289Z,16.53
2022-12-12T09:33:39.691Z,14.90
2022-12-12T09:36:09.263Z,15.27
2022-12-12T09:38:36.603Z,16.13
2022-12-12T09:41:09.041Z,14.30
2022-12-12T09:44:06.394Z,15.00
2022-12-12T09:46:55.443Z,15.97
2022-12-12T09:49:38.399Z,13.30
2022-12-12T09:52:16.963Z,14.10
2022-12-12T09:54:44.497Z,14.10
2022-12-12T09:57:28.476Z,14.87
2022-12-12T10:00:21.886Z,13.87
2022-12-12T10:03:18.116Z,16.03
2022-12-12T10:06:35.765Z,14.47
2022-12-12T10:09:34.688Z,15.33
2022-12-12T10:12:08.354Z,14.47
2022-12-12T10:15:04.639Z,14.57
2022-12-12T10:17:47.402Z,15.67
2022-12-12T10:20:29.784Z,14.77
2022-12-12T10:23:16.409Z,14.60
2022-12-12T10:25:56.965Z,14.43
2022-12-12T10:28:27.574Z,13.37
2022-12-12T10:31:05.864Z,13.67
2022-12-12T10:34:13.415Z,12.80
2022-12-12T10:37:14.595Z,14.50
2022-12-12T10:40:09.242Z,15.87
2022-12-12T10:43:09.475Z,13.20
2022-12-12T10:45:39.146Z,13.60
2022-12-12T10:48:06.338Z,13.80
2022-12-12T10:50:42.978Z,13.87
2022-12-12T10:53:12.377Z,14.07
2022-12-12T10:56:03.897Z,14.03
2022-12-12T10:58:43.476Z,14.23
2022-12-12T11:01:52.313Z,13.17
2022-12-12T11:04:14.852Z,14.40
2022-12-12T11:06:55.496Z,12.47
2022-12-12T11:09:27.288Z,12.43
2022-12-12T11:12:17.191Z,13.23
2022-12-12T11:14:53.603Z,13.37
2022-12-12T11:17:31.661Z,12.27
2022-12-12T11:20:01.595Z,13.17
2022-12-12T11:22:32.749Z,13.17
2022-12-12T11:25:00.553Z,10.47
2022-12-12T11:27:32.855Z,11.83
2022-12-12T11:30:04.853Z,12.17
2022-12-12T11:32:41.730Z,12.30
2022-12-12T11:35:27.400Z,11.30
2022-12-12T11:38:08.351Z,12.10
2022-12-12T11:40:37.312Z,12.70
2022-12-12T11:43:24.115Z,12.40
2022-12-12T11:46:21.755Z,13.00
2022-12-12T11:48:51.792Z,12.43
2022-12-12T11:51:32.842Z,12.20
2022-12-12T11:54:01.957Z,12.20
2022-12-12T11:56:46.597Z,11.93
2022-12-12T11:59:27.599Z,11.20
2022-12-12T12:02:25.495Z,8.77
2022-12-12T12:05:25.972Z,11.17
2022-12-12T12:08:08.391Z,11.87
2022-12-12T12:10:59.920Z,11.30
2022-12-12T12:14:00.801Z,12.80
2022-12-12T12:17:04.662Z,10.60
2022-12-12T12:19:51.887Z,11.30
2022-12-12T12:22:50.198Z,15.57
2022-12-12T12:25:52.795Z,12.60
2022-12-12T12:28:50.792Z,9.13
2022-12-12T12:32:05.383Z,10.43
2022-12-12T12:34:40.509Z,9.97
2022-12-12T12:37:45.705Z,9.27
2022-12-12T12:40:41.123Z,10.40
2022-12-12T12:43:29.677Z,10.23
2022-12-12T12:46:17.286Z,8.80
2022-12-12T12:48:56.148Z,9.00
2022-12-12T12:51:52.448Z,9.57
2022-12-12T12:54:36.153Z,8.70
2022-12-12T12:57:34.187Z,9.00
2022-12-12T13:00:15.904Z,9.63
2022-12-12T13:03:06.145Z,8.93
2022-12-12T13:06:01.966Z,8.90
2022-12-12T13:08:56.002Z,9.23
2022-12-12T13:11:39.157Z,9.60
2022-12-12T13:14:35.738Z,10.50
2022-12-12T13:17:07.795Z,8.97
2022-12-12T13:19:45.646Z,9.00
2022-12-12T13:22:47.141Z,9.47
2022-12-12T13:25:39.111Z,8.37
2022-12-12T13:28:16.609Z,7.60
2022-12-12T13:31:18.775Z,7.73
2022-12-12T13:34:21.834Z,7.07
2022-12-12T13:36:51.848Z,6.67
2022-12-12T13:39:35.452Z,7.07
2022-12-12T13:42:09.481Z,6.33
2022-12-12T13:44:49.852Z,8.13
2022-12-12T13:47:23.084Z,7.77
2022-12-12T13:50:28.458Z,6.73
2022-12-12T13:53:09.428Z,7.63
2022-12-12T13:55:39.625Z,6.97
2022-12-12T13:58:34.318Z,7.60
2022-12-12T14:01:41.907Z,7.37
2022-12-12T14:04:32.677Z,6.80
2022-12-12T14:07:12.283Z,7.57
2022-12-12T14:09:53.217Z,7.57
2022-12-12T14:12:31.347Z,7.63
2022-12-12T14:15:17.926Z,7.67
2022-12-12T14:17:55.746Z,8.67
2022-12-12T14:20:33.152Z,8.73
2022-12-12T14:22:59.902Z,9.20
2022-12-12T14:25:38.462Z,8.57
2022-12-12T14:28:26.896Z,8.80
2022-12-12T14:31:14.970Z,9.17
2022-12-12T14:33:52.661Z,8.90
2022-12-12T14:36:25.240Z,8.27
2022-12-12T14:39:23.741Z,8.37
2022-12-12T14:41:52.202Z,8.23
2022-12-12T14:44:37.373Z,9.17
2022-12-12T14:47:09.126Z,7.20
2022-12-12T14:49:36.537Z,7.57
2022-12-12T14:52:03.989Z,7.93
2022-12-12T14:54:31.607Z,8.07
2022-12-12T14:56:59.595Z,8.67
2022-12-12T14:59:37.991Z,10.10
2022-12-12T15:02:29.745Z,12.03
2022-12-12T15:05:05.250Z,12.73
2022-12-12T15:07:38.328Z,12.77
2022-12-12T15:10:28.583Z,13.53
2022-12-12T15:12:55.637Z,12.17
2022-12-12T15:15:31.064Z,13.03
2022-12-12T15:18:00.893Z,12.70
2022-12-12T15:20:31.419Z,12.63
2022-12-12T15:23:03.957Z,12.47
2022-12-12T15:25:45.853Z,12.07
2022-12-12T15:28:20.217Z,11.57
2022-12-12T15:30:52.304Z,10.60
2022-12-12T15:33:25.791Z,9.23
2022-12-12T15:36:05.028Z,11.33
2022-12-12T15:38:34.281Z,10.90
2022-12-12T15:41:09.604Z,11.67
2022-12-12T15:43:43.395Z,10.63
2022-12-12T15:46:16.077Z,11.87
2022-12-12T15:48:45.140Z,12.97
2022-12-12T15:51:21.085Z,12.50
2022-12-12T15:53:53.585Z,15.43
2022-12-12T15:56:21.348Z,10.20
2022-12-12T15:59:11.897Z,10.03
2022-12-12T16:01:39.029Z,10.23
2022-12-12T16:04:20.862Z,9.40
2022-12-12T16:06:48.924Z,9.83
2022-12-12T16:09:24.134Z,13.40
2022-12-12T16:11:59.340Z,15.27
2022-12-12T16:14:42.393Z,19.57
2022-12-12T16:17:24.801Z,19.17
2022-12-12T16:20:06.378Z,19.43
2022-12-12T16:22:45.048Z,18.20
2022-12-12T16:25:35.002Z,19.80
2022-12-12T16:28:08.176Z,21.33
2022-12-12T16:30:38.459Z,20.30
2022-12-12T16:33:14.436Z,20.70
2022-12-12T16:35:41.229Z,19.50
2022-12-12T16:38:16.969Z,19.50
2022-12-12T16:40:47.374Z,19.67
2022-12-12T16:43:17.915Z,19.80
2022-12-12T16:45:45.260Z,19.53
2022-12-12T16:48:17.409Z,18.97
2022-12-12T16:50:45.922Z,20.70
2022-12-12T16:53:13.246Z,23.50
2022-12-12T16:55:45.483Z,23.43
2022-12-12T16:58:12.721Z,19.83
2022-12-12T17:00:40.756Z,18.87
2022-12-12T17:03:08.254Z,17.30
2022-12-12T17:05:35.327Z,16.53
2022-12-12T17:08:04.347Z,25.20
2022-12-12T17:10:32.234Z,22.00
2022-12-12T17:13:08.037Z,19.30
2022-12-12T17:15:35.389Z,19.10
2022-12-12T17:18:04.975Z,19.20
2022-12-12T17:20:37.429Z,18.90
2022-12-12T17:23:29.082Z,17.80
2022-12-12T17:26:03.099Z,16.23
2022-12-12T17:28:33.410Z,16.63
2022-12-12T17:31:01.237Z,18.20
2022-12-12T17:33:28.307Z,19.10
2022-12-12T17:36:06.052Z,18.47
2022-12-12T17:38:33.865Z,20.70
2022-12-12T17:41:08.826Z,21.80
2022-12-12T17:43:37.024Z,20.67
2022-12-12T17:46:09.574Z,19.30
2022-12-12T17:48:36.622Z,19.33
2022-12-12T17:51:07.071Z,20.53
2022-12-12T17:53:38.158Z,22.00
2022-12-12T17:56:17.060Z,26.63
2022-12-12T17:58:48.072Z,24.97
2022-12-12T18:01:24.366Z,27.13
2022-12-12T18:03:53.685Z,19.93
2022-12-12T18:06:23.642Z,19.53
2022-12-12T18:08:52.466Z,22.73
2022-12-12T18:11:27.279Z,19.07
2022-12-12T18:14:00.372Z,21.50
2022-12-12T18:16:32.212Z,22.77
2022-12-12T18:18:59.864Z,26.00
2022-12-12T18:24:20.966Z,26.97
2022-12-12T18:26:53.967Z,23.37
2022-12-12T18:29:21.403Z,21.87
2022-12-12T18:31:49.911Z,24.27
2022-12-12T18:34:17.517Z,21.70
2022-12-12T18:36:44.487Z,23.93
2022-12-12T18:39:11.748Z,23.43
2022-12-12T18:41:38.622Z,26.93
2022-12-12T18:44:13.792Z,26.70
2022-12-12T18:46:43.442Z,31.57
2022-12-12T18:49:14.988Z,34.70
2022-12-12T18:51:43.200Z,31.23
2022-12-12T18:54:15.470Z,30.10
2022-12-12T18:56:46.012Z,31.80
2022-12-12T18:59:14.237Z,32.53
2022-12-12T19:01:41.315Z,32.00
2022-12-12T19:04:12.596Z,35.83
2022-12-12T19:06:42.246Z,32.17
2022-12-12T19:09:17.157Z,32.83
2022-12-12T19:11:45.123Z,33.33
2022-12-12T19:14:14.825Z,33.60
2022-12-12T19:16:43.797Z,31.00
2022-12-12T19:19:12.000Z,31.37
2022-12-12T19:21:39.151Z,33.60
2022-12-12T19:24:09.123Z,33.00
2022-12-12T19:26:37.820Z,36.50
2022-12-12T19:29:16.321Z,36.10
2022-12-12T19:31:44.881Z,29.93
2022-12-12T19:34:13.930Z,24.07
2022-12-12T19:36:41.602Z,22.40
2022-12-12T19:39:11.404Z,21.90
2022-12-12T19:41:38.277Z,22.47
2022-12-12T19:44:08.674Z,26.73
2022-12-12T19:46:36.002Z,30.80
2022-12-12T19:49:08.378Z,30.23
2022-12-12T19:51:39.112Z,28.37
2022-12-12T19:54:14.018Z,30.57
2022-12-12T19:56:41.581Z,27.70
2022-12-12T19:59:12.292Z,31.20
2022-12-12T20:01:40.045Z,31.67
2022-12-12T20:04:14.460Z,29.13
2022-12-12T20:06:42.144Z,30.23
2022-12-12T20:09:10.797Z,30.07
2022-12-12T20:11:38.854Z,30.63
2022-12-12T20:14:06.494Z,30.03
2022-12-12T20:16:33.707Z,29.53
2022-12-12T20:19:01.591Z,30.37
2022-12-12T20:24:18.629Z,30.60
2022-12-12T20:26:46.192Z,26.63
2022-12-12T20:29:14.677Z,28.53
2022-12-12T20:31:45.469Z,27.07
2022-12-12T20:34:24.655Z,27.30
2022-12-12T20:36:55.362Z,22.63
2022-12-12T20:39:24.658Z,24.67
2022-12-12T20:41:54.258Z,26.63
2022-12-12T20:44:23.296Z,28.23
2022-12-12T20:46:52.664Z,26.43
2022-12-12T20:49:22.426Z,29.73
2022-12-12T20:51:58.324Z,29.43
2022-12-12T20:54:28.259Z,29.17
2022-12-12T20:56:58.011Z,30.63
2022-12-12T20:59:26.043Z,31.20
2022-12-12T21:01:53.438Z,28.80
2022-12-12T21:04:21.092Z,30.77
2022-12-12T21:06:51.150Z,30.00
2022-12-12T21:09:25.114Z,28.93
2022-12-12T21:11:56.321Z,30.03
2022-12-12T21:14:24.434Z,30.13
2022-12-12T21:16:51.438Z,26.77
2022-12-12T21:19:23.084Z,28.17
2022-12-12T21:21:50.638Z,20.13
2022-12-12T21:24:18.914Z,20.87
2022-12-12T21:26:47.726Z,23.07
2022-12-12T21:29:16.189Z,25.50
2022-12-12T21:31:52.093Z,27.00
2022-12-12T21:34:22.355Z,28.20
2022-12-12T21:36:54.839Z,29.20
2022-12-12T21:39:29.846Z,20.60
2022-12-12T21:41:56.966Z,20.10
2022-12-12T21:44:24.726Z,25.23
2022-12-12T21:46:52.253Z,23.37
2022-12-12T21:49:19.689Z,27.20
2022-12-12T21:51:46.839Z,27.47
2022-12-12T21:54:15.731Z,28.27
2022-12-12T21:56:44.307Z,29.47
2022-12-12T21:59:15.075Z,27.57
2022-12-12T22:01:44.501Z,29.43
2022-12-12T22:04:14.101Z,30.63
2022-12-12T22:06:44.958Z,33.17
2022-12-12T22:09:12.927Z,25.27
2022-12-12T22:11:49.144Z,22.67
2022-12-12T22:14:19.803Z,28.60
2022-12-12T22:16:49.605Z,24.80
2022-12-12T22:19:19.355Z,25.90
2022-12-12T22:21:50.354Z,29.67
2022-12-12T22:24:19.394Z,28.43
2022-12-12T22:26:50.089Z,25.33
2022-12-12T22:29:20.719Z,24.00
2022-12-12T22:31:50.508Z,27.07
2022-12-12T22:34:23.877Z,27.37
2022-12-12T22:36:52.796Z,27.67
2022-12-12T22:39:27.293Z,26.00
2022-12-12T22:41:55.820Z,24.53
2022-12-12T22:44:25.300Z,25.60
2022-12-12T22:46:56.973Z,27.07
2022-12-12T22:49:27.087Z,36.03
2022-12-12T22:51:57.409Z,51.50
2022-12-12T22:54:25.455Z,42.20
2022-12-12T22:56:52.844Z,34.60
2022-12-12T22:59:19.833Z,38.00
2022-12-12T23:01:46.721Z,35.30
2022-12-12T23:04:14.620Z,33.27
2022-12-12T23:06:43.180Z,28.00
2022-12-12T23:09:21.069Z,28.30
2022-12-12T23:11:48.217Z,20.20
2022-12-12T23:14:19.659Z,18.63
2022-12-12T23:16:46.700Z,20.50
2022-12-12T23:19:17.759Z,19.53
2022-12-12T23:21:45.321Z,25.47
2022-12-12T23:24:13.661Z,27.47
2022-12-12T23:26:41.489Z,24.23
2022-12-12T23:29:14.079Z,26.83
2022-12-12T23:31:41.033Z,26.53
2022-12-12T23:34:16.359Z,25.37
2022-12-12T23:36:43.965Z,23.27
2022-12-12T23:39:12.368Z,24.73
2022-12-12T23:41:40.133Z,24.17
2022-12-12T23:44:08.722Z,25.27
2022-12-12T23:46:36.459Z,26.90
2022-12-12T23:49:15.611Z,28.00
2022-12-12T23:51:47.008Z,26.23
2022-12-12T23:54:19.523Z,26.97
2022-12-12T23:56:49.011Z,23.20
2022-12-12T23:59:19.214Z,23.03
